sensor_id;sensor_type;location;lat;lon;timestamp;P1;durP1;ratioP1;P2;durP2;ratioP2
60612;SDS011;46443;59.792;17.626;2022-12-07T00:01:42;1.88;;;1.50;;
60612;SDS011;46443;59.792;17.626;2022-12-07T00:04:13;1.60;;;1.50;;
60612;SDS011;46443;59.792;17.626;2022-12-07T00:06:40;2.95;;;1.88;;
60612;SDS011;46443;59.792;17.626;2022-12-07T00:09:07;2.80;;;1.67;;
60612;SDS011;46443;59.792;17.626;2022-12-07T00:11:35;2.90;;;1.92;;
60612;SDS011;46443;59.792;17.626;2022-12-07T00:14:02;3.95;;;1.75;;
60612;SDS011;46443;59.792;17.626;2022-12-07T00:16:29;6.80;;;1.75;;
60612;SDS011;46443;59.792;17.626;2022-12-07T00:18:56;2.10;;;1.40;;
60612;SDS011;46443;59.792;17.626;2022-12-07T00:21:32;2.17;;;1.60;;
60612;SDS011;46443;59.792;17.626;2022-12-07T00:23:58;3.88;;;1.88;;
60612;SDS011;46443;59.792;17.626;2022-12-07T00:26:29;2.63;;;1.80;;
60612;SDS011;46443;59.792;17.626;2022-12-07T00:28:59;3.58;;;1.60;;
60612;SDS011;46443;59.792;17.626;2022-12-07T00:31:29;3.20;;;1.60;;
60612;SDS011;46443;59.792;17.626;2022-12-07T00:33:56;2.83;;;1.45;;
60612;SDS011;46443;59.792;17.626;2022-12-07T00:36:23;3.35;;;1.88;;
60612;SDS011;46443;59.792;17.626;2022-12-07T00:38:49;5.22;;;1.50;;
60612;SDS011;46443;59.792;17.626;2022-12-07T00:41:19;3.70;;;1.85;;
60612;SDS011;46443;59.792;17.626;2022-12-07T00:46:11;3.50;;;1.70;;
60612;SDS011;46443;59.792;17.626;2022-12-07T00:48:38;3.97;;;1.70;;
60612;SDS011;46443;59.792;17.626;2022-12-07T00:51:05;1.42;;;1.30;;
60612;SDS011;46443;59.792;17.626;2022-12-07T00:53:33;3.33;;;1.70;;
60612;SDS011;46443;59.792;17.626;2022-12-07T00:56:04;2.65;;;1.85;;
60612;SDS011;46443;59.792;17.626;2022-12-07T00:58:30;2.38;;;1.63;;
60612;SDS011;46443;59.792;17.626;2022-12-07T01:00:56;3.95;;;1.90;;
60612;SDS011;46443;59.792;17.626;2022-12-07T01:03:25;2.75;;;1.70;;
60612;SDS011;46443;59.792;17.626;2022-12-07T01:05:54;3.28;;;1.80;;
60612;SDS011;46443;59.792;17.626;2022-12-07T01:08:21;4.07;;;1.63;;
60612;SDS011;46443;59.792;17.626;2022-12-07T01:10:47;3.60;;;1.73;;
60612;SDS011;46443;59.792;17.626;2022-12-07T01:13:13;3.58;;;1.83;;
60612;SDS011;46443;59.792;17.626;2022-12-07T01:15:42;2.97;;;1.67;;
60612;SDS011;46443;59.792;17.626;2022-12-07T01:18:09;3.97;;;1.98;;
60612;SDS011;46443;59.792;17.626;2022-12-07T01:20:35;3.45;;;1.70;;
60612;SDS011;46443;59.792;17.626;2022-12-07T01:23:01;3.45;;;1.75;;
60612;SDS011;46443;59.792;17.626;2022-12-07T01:25:27;7.03;;;1.70;;
60612;SDS011;46443;59.792;17.626;2022-12-07T01:27:53;4.65;;;2.20;;
60612;SDS011;46443;59.792;17.626;2022-12-07T01:30:19;3.65;;;1.65;;
60612;SDS011;46443;59.792;17.626;2022-12-07T01:32:45;2.65;;;1.85;;
60612;SDS011;46443;59.792;17.626;2022-12-07T01:35:11;5.55;;;1.83;;
60612;SDS011;46443;59.792;17.626;2022-12-07T01:37:37;2.53;;;1.80;;
60612;SDS011;46443;59.792;17.626;2022-12-07T01:40:05;2.90;;;1.90;;
60612;SDS011;46443;59.792;17.626;2022-12-07T01:42:31;4.50;;;1.98;;
60612;SDS011;46443;59.792;17.626;2022-12-07T01:47:41;2.22;;;1.65;;
60612;SDS011;46443;59.792;17.626;2022-12-07T01:50:08;3.47;;;1.85;;
60612;SDS011;46443;59.792;17.626;2022-12-07T01:52:34;2.80;;;1.88;;
60612;SDS011;46443;59.792;17.626;2022-12-07T01:55:04;3.15;;;1.73;;
60612;SDS011;46443;59.792;17.626;2022-12-07T01:57:32;4.68;;;2.10;;
60612;SDS011;46443;59.792;17.626;2022-12-07T01:59:59;1.67;;;1.52;;
60612;SDS011;46443;59.792;17.626;2022-12-07T02:02:26;3.55;;;1.80;;
60612;SDS011;46443;59.792;17.626;2022-12-07T02:04:53;5.75;;;2.03;;
60612;SDS011;46443;59.792;17.626;2022-12-07T02:07:21;4.07;;;2.20;;
60612;SDS011;46443;59.792;17.626;2022-12-07T02:09:49;2.72;;;1.75;;
60612;SDS011;46443;59.792;17.626;2022-12-07T02:12:15;3.20;;;2.38;;
60612;SDS011;46443;59.792;17.626;2022-12-07T02:14:41;3.17;;;1.98;;
60612;SDS011;46443;59.792;17.626;2022-12-07T02:20:11;3.30;;;1.85;;
60612;SDS011;46443;59.792;17.626;2022-12-07T02:30:47;2.63;;;1.67;;
60612;SDS011;46443;59.792;17.626;2022-12-07T02:33:18;3.47;;;1.80;;
60612;SDS011;46443;59.792;17.626;2022-12-07T02:35:48;8.30;;;2.00;;
60612;SDS011;46443;59.792;17.626;2022-12-07T02:40:53;3.55;;;2.10;;
60612;SDS011;46443;59.792;17.626;2022-12-07T02:43:23;3.65;;;1.67;;
60612;SDS011;46443;59.792;17.626;2022-12-07T02:45:50;3.85;;;1.75;;
60612;SDS011;46443;59.792;17.626;2022-12-07T02:48:17;2.08;;;1.50;;
60612;SDS011;46443;59.792;17.626;2022-12-07T02:50:45;2.15;;;1.73;;
60612;SDS011;46443;59.792;17.626;2022-12-07T02:55:56;3.13;;;1.60;;
60612;SDS011;46443;59.792;17.626;2022-12-07T03:07:05;6.85;;;1.67;;
60612;SDS011;46443;59.792;17.626;2022-12-07T03:09:36;4.35;;;1.73;;
60612;SDS011;46443;59.792;17.626;2022-12-07T03:12:10;3.03;;;1.65;;
60612;SDS011;46443;59.792;17.626;2022-12-07T03:14:40;2.28;;;1.70;;
60612;SDS011;46443;59.792;17.626;2022-12-07T03:17:12;4.50;;;1.60;;
60612;SDS011;46443;59.792;17.626;2022-12-07T03:19:40;3.58;;;2.20;;
60612;SDS011;46443;59.792;17.626;2022-12-07T03:22:10;2.97;;;1.70;;
60612;SDS011;46443;59.792;17.626;2022-12-07T03:24:38;3.85;;;2.13;;
60612;SDS011;46443;59.792;17.626;2022-12-07T03:27:13;2.78;;;1.80;;
60612;SDS011;46443;59.792;17.626;2022-12-07T03:29:46;2.88;;;1.80;;
60612;SDS011;46443;59.792;17.626;2022-12-07T03:34:47;2.15;;;1.60;;
60612;SDS011;46443;59.792;17.626;2022-12-07T03:37:17;3.38;;;1.92;;
60612;SDS011;46443;59.792;17.626;2022-12-07T03:39:48;2.92;;;1.80;;
60612;SDS011;46443;59.792;17.626;2022-12-07T03:42:15;4.78;;;1.80;;
60612;SDS011;46443;59.792;17.626;2022-12-07T03:44:41;2.88;;;1.75;;
60612;SDS011;46443;59.792;17.626;2022-12-07T03:49:50;5.30;;;1.90;;
60612;SDS011;46443;59.792;17.626;2022-12-07T03:52:22;4.47;;;1.95;;
60612;SDS011;46443;59.792;17.626;2022-12-07T03:54:52;3.22;;;1.75;;
60612;SDS011;46443;59.792;17.626;2022-12-07T03:57:20;7.10;;;2.08;;
60612;SDS011;46443;59.792;17.626;2022-12-07T03:59:47;3.15;;;2.00;;
60612;SDS011;46443;59.792;17.626;2022-12-07T04:02:13;4.80;;;2.28;;
60612;SDS011;46443;59.792;17.626;2022-12-07T04:04:39;5.93;;;2.47;;
60612;SDS011;46443;59.792;17.626;2022-12-07T04:07:05;4.20;;;2.50;;
60612;SDS011;46443;59.792;17.626;2022-12-07T04:09:31;2.40;;;1.98;;
60612;SDS011;46443;59.792;17.626;2022-12-07T04:11:57;4.05;;;2.33;;
60612;SDS011;46443;59.792;17.626;2022-12-07T04:14:23;3.95;;;2.33;;
60612;SDS011;46443;59.792;17.626;2022-12-07T04:16:50;4.05;;;2.22;;
60612;SDS011;46443;59.792;17.626;2022-12-07T04:19:17;4.07;;;2.33;;
60612;SDS011;46443;59.792;17.626;2022-12-07T04:21:44;4.93;;;2.42;;
60612;SDS011;46443;59.792;17.626;2022-12-07T04:24:11;3.40;;;1.75;;
60612;SDS011;46443;59.792;17.626;2022-12-07T04:26:37;3.95;;;1.80;;
60612;SDS011;46443;59.792;17.626;2022-12-07T04:29:03;5.38;;;2.08;;
60612;SDS011;46443;59.792;17.626;2022-12-07T04:31:29;4.50;;;2.08;;
60612;SDS011;46443;59.792;17.626;2022-12-07T04:33:55;4.38;;;2.30;;
60612;SDS011;46443;59.792;17.626;2022-12-07T04:36:21;4.07;;;1.77;;
60612;SDS011;46443;59.792;17.626;2022-12-07T04:38:47;5.07;;;2.03;;
60612;SDS011;46443;59.792;17.626;2022-12-07T04:41:13;3.40;;;1.98;;
60612;SDS011;46443;59.792;17.626;2022-12-07T04:43:39;4.00;;;2.33;;
60612;SDS011;46443;59.792;17.626;2022-12-07T04:46:05;2.92;;;1.80;;
60612;SDS011;46443;59.792;17.626;2022-12-07T04:48:32;4.95;;;2.08;;
60612;SDS011;46443;59.792;17.626;2022-12-07T04:50:58;3.88;;;2.17;;
60612;SDS011;46443;59.792;17.626;2022-12-07T04:53:24;5.20;;;2.20;;
60612;SDS011;46443;59.792;17.626;2022-12-07T04:55:50;5.07;;;2.35;;
60612;SDS011;46443;59.792;17.626;2022-12-07T04:58:16;2.83;;;1.90;;
60612;SDS011;46443;59.792;17.626;2022-12-07T05:00:42;4.82;;;2.25;;
60612;SDS011;46443;59.792;17.626;2022-12-07T05:03:08;3.40;;;1.73;;
60612;SDS011;46443;59.792;17.626;2022-12-07T05:05:34;5.10;;;2.25;;
60612;SDS011;46443;59.792;17.626;2022-12-07T05:08:00;3.63;;;2.10;;
60612;SDS011;46443;59.792;17.626;2022-12-07T05:10:26;3.40;;;1.90;;
60612;SDS011;46443;59.792;17.626;2022-12-07T05:12:52;6.28;;;2.08;;
60612;SDS011;46443;59.792;17.626;2022-12-07T05:15:18;5.93;;;2.17;;
60612;SDS011;46443;59.792;17.626;2022-12-07T05:17:44;4.18;;;1.90;;
60612;SDS011;46443;59.792;17.626;2022-12-07T05:20:10;4.10;;;1.92;;
60612;SDS011;46443;59.792;17.626;2022-12-07T05:22:36;3.25;;;2.00;;
60612;SDS011;46443;59.792;17.626;2022-12-07T05:25:02;3.45;;;2.00;;
60612;SDS011;46443;59.792;17.626;2022-12-07T05:27:28;3.47;;;2.08;;
60612;SDS011;46443;59.792;17.626;2022-12-07T05:29:54;6.22;;;2.03;;
60612;SDS011;46443;59.792;17.626;2022-12-07T05:32:20;3.08;;;2.00;;
60612;SDS011;46443;59.792;17.626;2022-12-07T05:34:46;3.17;;;2.10;;
60612;SDS011;46443;59.792;17.626;2022-12-07T05:37:12;5.57;;;2.40;;
60612;SDS011;46443;59.792;17.626;2022-12-07T05:39:38;3.80;;;2.10;;
60612;SDS011;46443;59.792;17.626;2022-12-07T05:42:08;5.10;;;2.10;;
60612;SDS011;46443;59.792;17.626;2022-12-07T05:44:37;3.05;;;1.92;;
60612;SDS011;46443;59.792;17.626;2022-12-07T05:47:03;6.05;;;2.13;;
60612;SDS011;46443;59.792;17.626;2022-12-07T05:49:29;3.80;;;2.15;;
60612;SDS011;46443;59.792;17.626;2022-12-07T05:51:55;4.68;;;1.90;;
60612;SDS011;46443;59.792;17.626;2022-12-07T05:54:21;5.25;;;2.40;;
60612;SDS011;46443;59.792;17.626;2022-12-07T05:56:47;3.17;;;1.80;;
60612;SDS011;46443;59.792;17.626;2022-12-07T05:59:13;3.00;;;2.17;;
60612;SDS011;46443;59.792;17.626;2022-12-07T06:01:49;5.85;;;2.30;;
60612;SDS011;46443;59.792;17.626;2022-12-07T06:04:15;4.15;;;2.50;;
60612;SDS011;46443;59.792;17.626;2022-12-07T06:06:42;4.68;;;2.20;;
60612;SDS011;46443;59.792;17.626;2022-12-07T06:09:08;4.60;;;1.95;;
60612;SDS011;46443;59.792;17.626;2022-12-07T06:11:34;4.20;;;2.17;;
60612;SDS011;46443;59.792;17.626;2022-12-07T06:14:18;6.18;;;2.00;;
60612;SDS011;46443;59.792;17.626;2022-12-07T06:16:44;4.07;;;2.10;;
60612;SDS011;46443;59.792;17.626;2022-12-07T06:19:10;3.08;;;1.92;;
60612;SDS011;46443;59.792;17.626;2022-12-07T06:21:36;2.75;;;1.80;;
60612;SDS011;46443;59.792;17.626;2022-12-07T06:24:02;4.22;;;1.80;;
60612;SDS011;46443;59.792;17.626;2022-12-07T06:26:29;5.25;;;2.13;;
60612;SDS011;46443;59.792;17.626;2022-12-07T06:28:55;4.70;;;2.00;;
60612;SDS011;46443;59.792;17.626;2022-12-07T06:31:21;2.88;;;1.80;;
60612;SDS011;46443;59.792;17.626;2022-12-07T06:33:47;3.50;;;2.20;;
60612;SDS011;46443;59.792;17.626;2022-12-07T06:36:13;5.22;;;2.90;;
60612;SDS011;46443;59.792;17.626;2022-12-07T06:38:39;4.80;;;3.03;;
60612;SDS011;46443;59.792;17.626;2022-12-07T06:41:05;6.03;;;3.00;;
60612;SDS011;46443;59.792;17.626;2022-12-07T06:43:31;3.88;;;2.38;;
60612;SDS011;46443;59.792;17.626;2022-12-07T06:45:57;4.03;;;2.17;;
60612;SDS011;46443;59.792;17.626;2022-12-07T06:48:24;5.63;;;2.70;;
60612;SDS011;46443;59.792;17.626;2022-12-07T06:50:50;4.00;;;2.00;;
60612;SDS011;46443;59.792;17.626;2022-12-07T06:53:16;6.03;;;2.13;;
60612;SDS011;46443;59.792;17.626;2022-12-07T06:55:42;3.28;;;1.98;;
60612;SDS011;46443;59.792;17.626;2022-12-07T06:58:08;3.75;;;2.20;;
60612;SDS011;46443;59.792;17.626;2022-12-07T07:00:34;4.10;;;2.40;;
60612;SDS011;46443;59.792;17.626;2022-12-07T07:03:00;5.28;;;2.13;;
60612;SDS011;46443;59.792;17.626;2022-12-07T07:05:26;6.55;;;2.72;;
60612;SDS011;46443;59.792;17.626;2022-12-07T07:07:52;4.03;;;2.30;;
60612;SDS011;46443;59.792;17.626;2022-12-07T07:10:18;3.72;;;2.08;;
60612;SDS011;46443;59.792;17.626;2022-12-07T07:12:44;5.43;;;2.40;;
60612;SDS011;46443;59.792;17.626;2022-12-07T07:15:10;4.32;;;2.33;;
60612;SDS011;46443;59.792;17.626;2022-12-07T07:17:37;3.83;;;2.17;;
60612;SDS011;46443;59.792;17.626;2022-12-07T07:20:03;4.57;;;2.42;;
60612;SDS011;46443;59.792;17.626;2022-12-07T07:22:29;4.97;;;2.65;;
60612;SDS011;46443;59.792;17.626;2022-12-07T07:24:55;3.75;;;2.22;;
60612;SDS011;46443;59.792;17.626;2022-12-07T07:27:21;4.72;;;2.40;;
60612;SDS011;46443;59.792;17.626;2022-12-07T07:29:47;6.32;;;2.30;;
60612;SDS011;46443;59.792;17.626;2022-12-07T07:32:13;4.35;;;2.38;;
60612;SDS011;46443;59.792;17.626;2022-12-07T07:34:39;3.45;;;2.03;;
60612;SDS011;46443;59.792;17.626;2022-12-07T07:37:05;4.40;;;2.50;;
60612;SDS011;46443;59.792;17.626;2022-12-07T07:39:31;3.53;;;2.30;;
60612;SDS011;46443;59.792;17.626;2022-12-07T07:41:57;6.40;;;2.45;;
60612;SDS011;46443;59.792;17.626;2022-12-07T07:44:23;6.80;;;2.53;;
60612;SDS011;46443;59.792;17.626;2022-12-07T07:46:49;3.85;;;1.80;;
60612;SDS011;46443;59.792;17.626;2022-12-07T07:49:15;3.38;;;2.10;;
60612;SDS011;46443;59.792;17.626;2022-12-07T07:51:41;4.50;;;2.42;;
60612;SDS011;46443;59.792;17.626;2022-12-07T07:54:07;3.95;;;2.08;;
60612;SDS011;46443;59.792;17.626;2022-12-07T07:56:33;3.60;;;2.22;;
60612;SDS011;46443;59.792;17.626;2022-12-07T07:58:59;6.82;;;2.80;;
60612;SDS011;46443;59.792;17.626;2022-12-07T08:01:25;6.30;;;2.10;;
60612;SDS011;46443;59.792;17.626;2022-12-07T08:03:51;5.13;;;2.72;;
60612;SDS011;46443;59.792;17.626;2022-12-07T08:06:17;5.88;;;2.30;;
60612;SDS011;46443;59.792;17.626;2022-12-07T08:08:43;6.28;;;2.45;;
60612;SDS011;46443;59.792;17.626;2022-12-07T08:11:09;3.05;;;2.00;;
60612;SDS011;46443;59.792;17.626;2022-12-07T08:13:36;3.50;;;2.13;;
60612;SDS011;46443;59.792;17.626;2022-12-07T08:16:06;4.90;;;2.30;;
60612;SDS011;46443;59.792;17.626;2022-12-07T08:18:36;3.95;;;2.33;;
60612;SDS011;46443;59.792;17.626;2022-12-07T08:21:02;4.35;;;2.60;;
60612;SDS011;46443;59.792;17.626;2022-12-07T08:23:29;7.40;;;2.63;;
60612;SDS011;46443;59.792;17.626;2022-12-07T08:25:59;5.45;;;2.33;;
60612;SDS011;46443;59.792;17.626;2022-12-07T08:28:25;4.10;;;2.72;;
60612;SDS011;46443;59.792;17.626;2022-12-07T08:30:51;6.10;;;2.50;;
60612;SDS011;46443;59.792;17.626;2022-12-07T08:33:17;3.15;;;2.20;;
60612;SDS011;46443;59.792;17.626;2022-12-07T08:35:47;4.97;;;2.45;;
60612;SDS011;46443;59.792;17.626;2022-12-07T08:38:13;6.00;;;2.78;;
60612;SDS011;46443;59.792;17.626;2022-12-07T08:40:39;4.07;;;2.65;;
60612;SDS011;46443;59.792;17.626;2022-12-07T08:43:05;4.28;;;2.13;;
60612;SDS011;46443;59.792;17.626;2022-12-07T08:45:31;4.47;;;2.50;;
60612;SDS011;46443;59.792;17.626;2022-12-07T08:48:07;8.90;;;2.83;;
60612;SDS011;46443;59.792;17.626;2022-12-07T08:50:35;3.63;;;2.55;;
60612;SDS011;46443;59.792;17.626;2022-12-07T08:53:02;4.38;;;2.30;;
60612;SDS011;46443;59.792;17.626;2022-12-07T08:55:29;4.95;;;2.67;;
60612;SDS011;46443;59.792;17.626;2022-12-07T08:57:57;5.53;;;2.72;;
60612;SDS011;46443;59.792;17.626;2022-12-07T09:00:23;5.85;;;3.40;;
60612;SDS011;46443;59.792;17.626;2022-12-07T09:02:49;4.45;;;2.72;;
60612;SDS011;46443;59.792;17.626;2022-12-07T09:05:15;6.72;;;3.05;;
60612;SDS011;46443;59.792;17.626;2022-12-07T09:07:42;6.07;;;2.85;;
60612;SDS011;46443;59.792;17.626;2022-12-07T09:10:09;5.85;;;2.80;;
60612;SDS011;46443;59.792;17.626;2022-12-07T09:12:35;5.85;;;3.03;;
60612;SDS011;46443;59.792;17.626;2022-12-07T09:15:01;5.65;;;2.80;;
60612;SDS011;46443;59.792;17.626;2022-12-07T09:17:27;4.47;;;2.58;;
60612;SDS011;46443;59.792;17.626;2022-12-07T09:19:53;5.32;;;2.35;;
60612;SDS011;46443;59.792;17.626;2022-12-07T09:22:19;4.90;;;2.72;;
60612;SDS011;46443;59.792;17.626;2022-12-07T09:24:45;6.10;;;3.22;;
60612;SDS011;46443;59.792;17.626;2022-12-07T09:27:11;5.93;;;2.92;;
60612;SDS011;46443;59.792;17.626;2022-12-07T09:29:38;4.80;;;2.58;;
60612;SDS011;46443;59.792;17.626;2022-12-07T09:32:04;8.52;;;2.85;;
60612;SDS011;46443;59.792;17.626;2022-12-07T09:34:30;5.88;;;2.78;;
60612;SDS011;46443;59.792;17.626;2022-12-07T09:36:57;4.78;;;2.30;;
60612;SDS011;46443;59.792;17.626;2022-12-07T09:39:23;4.55;;;2.70;;
60612;SDS011;46443;59.792;17.626;2022-12-07T09:41:49;5.20;;;2.90;;
60612;SDS011;46443;59.792;17.626;2022-12-07T09:44:18;5.32;;;2.70;;
60612;SDS011;46443;59.792;17.626;2022-12-07T09:46:45;4.85;;;2.50;;
60612;SDS011;46443;59.792;17.626;2022-12-07T09:49:12;7.22;;;2.83;;
60612;SDS011;46443;59.792;17.626;2022-12-07T09:51:40;4.70;;;2.40;;
60612;SDS011;46443;59.792;17.626;2022-12-07T09:54:07;4.15;;;2.72;;
60612;SDS011;46443;59.792;17.626;2022-12-07T09:56:34;5.20;;;2.72;;
60612;SDS011;46443;59.792;17.626;2022-12-07T09:59:01;5.15;;;2.67;;
60612;SDS011;46443;59.792;17.626;2022-12-07T10:01:29;5.82;;;2.90;;
60612;SDS011;46443;59.792;17.626;2022-12-07T10:04:01;5.28;;;2.85;;
60612;SDS011;46443;59.792;17.626;2022-12-07T10:06:27;5.35;;;2.58;;
60612;SDS011;46443;59.792;17.626;2022-12-07T10:08:53;5.32;;;2.90;;
60612;SDS011;46443;59.792;17.626;2022-12-07T10:11:19;3.58;;;2.25;;
60612;SDS011;46443;59.792;17.626;2022-12-07T10:13:47;5.10;;;2.53;;
60612;SDS011;46443;59.792;17.626;2022-12-07T10:19:03;6.10;;;3.15;;
60612;SDS011;46443;59.792;17.626;2022-12-07T10:21:42;4.97;;;2.50;;
60612;SDS011;46443;59.792;17.626;2022-12-07T10:24:24;7.57;;;2.55;;
60612;SDS011;46443;59.792;17.626;2022-12-07T10:26:51;4.82;;;2.53;;
60612;SDS011;46443;59.792;17.626;2022-12-07T10:29:21;3.88;;;2.30;;
60612;SDS011;46443;59.792;17.626;2022-12-07T10:31:58;6.28;;;2.83;;
60612;SDS011;46443;59.792;17.626;2022-12-07T10:34:26;7.45;;;2.95;;
60612;SDS011;46443;59.792;17.626;2022-12-07T10:36:53;4.10;;;2.30;;
60612;SDS011;46443;59.792;17.626;2022-12-07T10:39:32;5.13;;;2.65;;
60612;SDS011;46443;59.792;17.626;2022-12-07T10:42:09;6.35;;;2.85;;
60612;SDS011;46443;59.792;17.626;2022-12-07T10:44:41;5.60;;;2.90;;
60612;SDS011;46443;59.792;17.626;2022-12-07T10:50:44;7.53;;;2.60;;
60612;SDS011;46443;59.792;17.626;2022-12-07T10:52:47;6.90;;;2.92;;
60612;SDS011;46443;59.792;17.626;2022-12-07T11:00:27;4.47;;;2.40;;
60612;SDS011;46443;59.792;17.626;2022-12-07T11:13:38;4.60;;;2.20;;
60612;SDS011;46443;59.792;17.626;2022-12-07T11:16:13;5.43;;;2.60;;
60612;SDS011;46443;59.792;17.626;2022-12-07T11:21:20;4.80;;;3.08;;
60612;SDS011;46443;59.792;17.626;2022-12-07T11:31:13;6.27;;;2.57;;
60612;SDS011;46443;59.792;17.626;2022-12-07T11:38:52;4.97;;;2.60;;
60612;SDS011;46443;59.792;17.626;2022-12-07T11:41:20;5.07;;;2.60;;
60612;SDS011;46443;59.792;17.626;2022-12-07T11:46:28;4.43;;;2.22;;
60612;SDS011;46443;59.792;17.626;2022-12-07T11:49:02;8.60;;;3.83;;
60612;SDS011;46443;59.792;17.626;2022-12-07T11:51:30;4.75;;;2.67;;
60612;SDS011;46443;59.792;17.626;2022-12-07T11:54:03;8.57;;;2.72;;
60612;SDS011;46443;59.792;17.626;2022-12-07T11:56:31;7.47;;;2.78;;
60612;SDS011;46443;59.792;17.626;2022-12-07T11:59:07;7.15;;;3.00;;
60612;SDS011;46443;59.792;17.626;2022-12-07T12:06:37;4.65;;;2.58;;
60612;SDS011;46443;59.792;17.626;2022-12-07T12:14:05;5.10;;;2.83;;
60612;SDS011;46443;59.792;17.626;2022-12-07T12:21:55;5.60;;;2.75;;
60612;SDS011;46443;59.792;17.626;2022-12-07T12:24:23;5.15;;;2.60;;
60612;SDS011;46443;59.792;17.626;2022-12-07T12:26:52;4.38;;;2.20;;
60612;SDS011;46443;59.792;17.626;2022-12-07T12:29:38;5.35;;;2.60;;
60612;SDS011;46443;59.792;17.626;2022-12-07T12:32:47;5.78;;;2.53;;
60612;SDS011;46443;59.792;17.626;2022-12-07T12:42:45;4.63;;;2.40;;
60612;SDS011;46443;59.792;17.626;2022-12-07T12:47:54;4.05;;;2.38;;
60612;SDS011;46443;59.792;17.626;2022-12-07T12:50:25;7.05;;;2.42;;
60612;SDS011;46443;59.792;17.626;2022-12-07T12:52:52;3.47;;;1.92;;
60612;SDS011;46443;59.792;17.626;2022-12-07T12:55:20;5.95;;;2.80;;
60612;SDS011;46443;59.792;17.626;2022-12-07T12:58:25;4.40;;;2.35;;
60612;SDS011;46443;59.792;17.626;2022-12-07T13:00:34;3.67;;;1.92;;
60612;SDS011;46443;59.792;17.626;2022-12-07T13:03:00;4.93;;;2.78;;
60612;SDS011;46443;59.792;17.626;2022-12-07T13:05:27;4.70;;;2.47;;
60612;SDS011;46443;59.792;17.626;2022-12-07T13:08:14;5.97;;;2.50;;
60612;SDS011;46443;59.792;17.626;2022-12-07T13:10:43;6.50;;;2.30;;
60612;SDS011;46443;59.792;17.626;2022-12-07T13:15:51;4.15;;;2.40;;
60612;SDS011;46443;59.792;17.626;2022-12-07T13:23:21;3.70;;;2.38;;
60612;SDS011;46443;59.792;17.626;2022-12-07T13:28:47;7.90;;;2.30;;
60612;SDS011;46443;59.792;17.626;2022-12-07T13:33:42;3.83;;;2.00;;
60612;SDS011;46443;59.792;17.626;2022-12-07T13:36:14;3.60;;;1.85;;
60612;SDS011;46443;59.792;17.626;2022-12-07T13:38:48;3.58;;;2.15;;
60612;SDS011;46443;59.792;17.626;2022-12-07T13:41:16;5.13;;;1.98;;
60612;SDS011;46443;59.792;17.626;2022-12-07T13:43:52;4.50;;;2.50;;
60612;SDS011;46443;59.792;17.626;2022-12-07T13:46:19;5.03;;;2.25;;
60612;SDS011;46443;59.792;17.626;2022-12-07T13:48:47;2.35;;;1.75;;
60612;SDS011;46443;59.792;17.626;2022-12-07T13:51:17;2.75;;;2.03;;
60612;SDS011;46443;59.792;17.626;2022-12-07T13:53:48;3.33;;;2.38;;
60612;SDS011;46443;59.792;17.626;2022-12-07T13:56:14;3.60;;;1.83;;
60612;SDS011;46443;59.792;17.626;2022-12-07T13:58:41;3.83;;;1.80;;
60612;SDS011;46443;59.792;17.626;2022-12-07T14:01:07;5.10;;;2.25;;
60612;SDS011;46443;59.792;17.626;2022-12-07T14:03:34;2.80;;;1.88;;
60612;SDS011;46443;59.792;17.626;2022-12-07T14:08:30;3.53;;;1.92;;
60612;SDS011;46443;59.792;17.626;2022-12-07T14:10:56;3.35;;;2.00;;
60612;SDS011;46443;59.792;17.626;2022-12-07T14:13:29;2.58;;;1.83;;
60612;SDS011;46443;59.792;17.626;2022-12-07T14:15:55;2.75;;;2.00;;
60612;SDS011;46443;59.792;17.626;2022-12-07T14:18:30;3.90;;;1.75;;
60612;SDS011;46443;59.792;17.626;2022-12-07T14:21:03;3.40;;;1.80;;
60612;SDS011;46443;59.792;17.626;2022-12-07T14:23:29;3.45;;;1.98;;
60612;SDS011;46443;59.792;17.626;2022-12-07T14:26:03;3.40;;;1.70;;
60612;SDS011;46443;59.792;17.626;2022-12-07T14:28:31;2.50;;;1.70;;
60612;SDS011;46443;59.792;17.626;2022-12-07T14:30:57;3.38;;;1.90;;
60612;SDS011;46443;59.792;17.626;2022-12-07T14:33:24;3.15;;;1.77;;
60612;SDS011;46443;59.792;17.626;2022-12-07T14:35:50;3.58;;;1.98;;
60612;SDS011;46443;59.792;17.626;2022-12-07T14:38:20;3.13;;;1.87;;
60612;SDS011;46443;59.792;17.626;2022-12-07T14:40:46;2.63;;;1.83;;
60612;SDS011;46443;59.792;17.626;2022-12-07T14:43:13;1.70;;;1.33;;
60612;SDS011;46443;59.792;17.626;2022-12-07T14:45:40;2.85;;;1.80;;
60612;SDS011;46443;59.792;17.626;2022-12-07T14:48:13;1.85;;;1.50;;
60612;SDS011;46443;59.792;17.626;2022-12-07T14:50:43;3.17;;;1.67;;
60612;SDS011;46443;59.792;17.626;2022-12-07T14:53:13;3.58;;;1.85;;
60612;SDS011;46443;59.792;17.626;2022-12-07T14:55:39;3.20;;;1.77;;
60612;SDS011;46443;59.792;17.626;2022-12-07T14:58:05;1.83;;;1.58;;
60612;SDS011;46443;59.792;17.626;2022-12-07T15:00:31;4.55;;;1.83;;
60612;SDS011;46443;59.792;17.626;2022-12-07T15:02:59;2.92;;;1.70;;
60612;SDS011;46443;59.792;17.626;2022-12-07T15:05:25;3.97;;;1.85;;
60612;SDS011;46443;59.792;17.626;2022-12-07T15:07:51;3.33;;;1.50;;
60612;SDS011;46443;59.792;17.626;2022-12-07T15:10:18;4.65;;;1.92;;
60612;SDS011;46443;59.792;17.626;2022-12-07T15:12:44;5.82;;;1.90;;
60612;SDS011;46443;59.792;17.626;2022-12-07T15:15:11;4.22;;;2.03;;
60612;SDS011;46443;59.792;17.626;2022-12-07T15:17:37;1.80;;;1.60;;
60612;SDS011;46443;59.792;17.626;2022-12-07T15:20:03;2.00;;;1.80;;
60612;SDS011;46443;59.792;17.626;2022-12-07T15:22:30;1.65;;;1.55;;
60612;SDS011;46443;59.792;17.626;2022-12-07T15:24:56;1.70;;;1.40;;
60612;SDS011;46443;59.792;17.626;2022-12-07T15:27:22;2.53;;;1.85;;
60612;SDS011;46443;59.792;17.626;2022-12-07T15:29:48;2.67;;;1.60;;
60612;SDS011;46443;59.792;17.626;2022-12-07T15:32:14;2.03;;;1.52;;
60612;SDS011;46443;59.792;17.626;2022-12-07T15:34:40;4.60;;;1.92;;
60612;SDS011;46443;59.792;17.626;2022-12-07T15:37:07;3.78;;;1.77;;
60612;SDS011;46443;59.792;17.626;2022-12-07T15:39:33;1.50;;;1.40;;
60612;SDS011;46443;59.792;17.626;2022-12-07T15:41:59;3.70;;;2.00;;
60612;SDS011;46443;59.792;17.626;2022-12-07T15:44:25;3.10;;;1.88;;
60612;SDS011;46443;59.792;17.626;2022-12-07T15:47:10;5.75;;;2.05;;
60612;SDS011;46443;59.792;17.626;2022-12-07T15:49:36;6.70;;;2.13;;
60612;SDS011;46443;59.792;17.626;2022-12-07T15:52:02;4.57;;;2.00;;
60612;SDS011;46443;59.792;17.626;2022-12-07T15:54:28;2.97;;;1.73;;
60612;SDS011;46443;59.792;17.626;2022-12-07T15:56:55;4.70;;;2.22;;
60612;SDS011;46443;59.792;17.626;2022-12-07T15:59:21;4.50;;;2.10;;
60612;SDS011;46443;59.792;17.626;2022-12-07T16:01:47;3.15;;;1.80;;
60612;SDS011;46443;59.792;17.626;2022-12-07T16:04:13;2.70;;;1.90;;
60612;SDS011;46443;59.792;17.626;2022-12-07T16:06:39;3.25;;;1.90;;
60612;SDS011;46443;59.792;17.626;2022-12-07T16:09:05;4.30;;;1.98;;
60612;SDS011;46443;59.792;17.626;2022-12-07T16:11:31;1.70;;;1.60;;
60612;SDS011;46443;59.792;17.626;2022-12-07T16:13:58;2.80;;;2.05;;
60612;SDS011;46443;59.792;17.626;2022-12-07T16:16:24;3.30;;;2.15;;
60612;SDS011;46443;59.792;17.626;2022-12-07T16:18:50;1.80;;;1.67;;
60612;SDS011;46443;59.792;17.626;2022-12-07T16:21:17;4.97;;;2.00;;
60612;SDS011;46443;59.792;17.626;2022-12-07T16:23:43;4.93;;;1.98;;
60612;SDS011;46443;59.792;17.626;2022-12-07T16:28:35;2.58;;;1.95;;
60612;SDS011;46443;59.792;17.626;2022-12-07T16:31:06;2.95;;;2.00;;
60612;SDS011;46443;59.792;17.626;2022-12-07T16:33:33;2.70;;;2.05;;
60612;SDS011;46443;59.792;17.626;2022-12-07T16:36:00;4.28;;;2.40;;